createdAt,value
2022-12-16T00:02:33.378Z,98414.44
2022-12-16T00:05:06.316Z,98415.00
2022-12-16T00:07:43.222Z,98411.47
2022-12-16T00:10:14.282Z,98392.44
2022-12-16T00:12:55.153Z,98393.75
2022-12-16T00:15:26.058Z,98400.19
2022-12-16T00:17:54.911Z,98421.97
2022-12-16T00:20:37.262Z,98411.09
2022-12-16T00:23:07.537Z,98401.28
2022-12-16T00:25:37.350Z,98388.59
2022-12-16T00:28:06.574Z,98386.81
2022-12-16T00:30:45.152Z,98372.00
2022-12-16T00:33:14.794Z,98361.13
2022-12-16T00:35:52.244Z,98355.63
2022-12-16T00:38:24.579Z,98363.53
2022-12-16T00:40:55.024Z,98362.22
2022-12-16T00:46:13.859Z,98379.75
2022-12-16T00:48:49.034Z,98368.41
2022-12-16T00:51:22.749Z,98358.50
2022-12-16T00:53:51.428Z,98337.34
2022-12-16T00:56:23.034Z,98323.47
2022-12-16T00:58:57.068Z,98325.84
2022-12-16T01:01:34.654Z,98320.59
2022-12-16T01:04:06.629Z,98318.13
2022-12-16T01:06:37.888Z,98316.06
2022-12-16T01:09:16.405Z,98323.72
2022-12-16T01:11:44.635Z,98313.09
2022-12-16T01:14:17.056Z,98315.34
2022-12-16T01:16:52.614Z,98310.94
2022-12-16T01:19:31.848Z,98300.31
2022-12-16T01:22:11.225Z,98290.16
2022-12-16T01:24:44.941Z,98301.03
2022-12-16T01:27:22.548Z,98297.78
2022-12-16T01:29:52.174Z,98291.69
2022-12-16T01:32:27.145Z,98296.09
2022-12-16T01:34:56.672Z,98298.38
2022-12-16T01:37:30.339Z,98301.47
2022-12-16T01:40:07.109Z,98285.94
2022-12-16T01:42:49.097Z,98277.00
2022-12-16T01:45:37.993Z,98277.56
2022-12-16T01:48:21.151Z,98266.25
2022-12-16T01:50:51.327Z,98264.31
2022-12-16T01:53:32.530Z,98261.78
2022-12-16T01:56:16.440Z,98255.25
2022-12-16T01:58:48.890Z,98250.69
2022-12-16T02:01:20.057Z,98247.06
2022-12-16T02:03:55.443Z,98229.03
2022-12-16T02:06:29.500Z,98240.28
2022-12-16T02:08:59.482Z,98228.66
2022-12-16T02:11:54.044Z,98228.91
2022-12-16T02:14:46.346Z,98221.03
2022-12-16T02:17:18.989Z,98223.03
2022-12-16T02:20:31.591Z,98226.53
2022-12-16T02:23:15.784Z,98230.56
2022-12-16T02:26:18.023Z,98246.84
2022-12-16T02:29:13.170Z,98255.06
2022-12-16T02:31:55.080Z,98249.34
2022-12-16T02:34:30.916Z,98251.25
2022-12-16T02:37:09.470Z,98253.19
2022-12-16T02:39:47.380Z,98254.13
2022-12-16T02:42:23.249Z,98256.75
2022-12-16T02:44:59.098Z,98246.78
2022-12-16T02:47:38.061Z,98244.78
2022-12-16T02:50:10.845Z,98251.00
2022-12-16T02:52:40.871Z,98243.00
2022-12-16T02:55:18.638Z,98248.63
2022-12-16T02:58:16.401Z,98233.28
2022-12-16T03:00:57.688Z,98223.34
2022-12-16T03:03:36.209Z,98200.25
2022-12-16T03:06:07.541Z,98186.75
2022-12-16T03:08:38.467Z,98179.59
2022-12-16T03:11:12.732Z,98168.97
2022-12-16T03:13:44.738Z,98172.31
2022-12-16T03:16:18.295Z,98164.72
2022-12-16T03:18:55.670Z,98160.44
2022-12-16T03:21:31.469Z,98146.13
2022-12-16T03:24:02.113Z,98141.56
2022-12-16T03:26:34.529Z,98136.03
2022-12-16T03:29:10.814Z,98127.91
2022-12-16T03:31:46.667Z,98125.88
2022-12-16T03:34:30.317Z,98109.94
2022-12-16T03:37:03.551Z,98113.94
2022-12-16T03:39:33.068Z,98116.59
2022-12-16T03:42:09.385Z,98121.69
2022-12-16T03:44:49.525Z,98118.00
2022-12-16T03:47:29.041Z,98105.31
2022-12-16T03:50:18.292Z,98087.16
2022-12-16T03:52:46.333Z,98084.47
2022-12-16T03:55:14.898Z,98075.41
2022-12-16T03:57:53.218Z,98070.78
2022-12-16T04:00:28.018Z,98065.22
2022-12-16T04:02:59.913Z,98077.78
2022-12-16T04:05:42.805Z,98062.00
2022-12-16T04:08:12.419Z,98073.28
2022-12-16T04:11:01.711Z,98088.00
2022-12-16T04:13:51.291Z,98096.91
2022-12-16T04:16:39.340Z,98103.84
2022-12-16T04:19:36.404Z,98091.59
2022-12-16T04:22:35.361Z,98084.34
2022-12-16T04:25:15.403Z,98082.22
2022-12-16T04:27:52.095Z,98073.63
2022-12-16T04:30:30.618Z,98080.25
2022-12-16T04:33:21.414Z,98080.28
2022-12-16T04:36:11.322Z,98064.50
2022-12-16T04:39:02.317Z,98065.66
2022-12-16T04:41:52.323Z,98064.84
2022-12-16T04:44:44.118Z,98059.09
2022-12-16T04:47:38.590Z,98064.06
2022-12-16T04:50:27.068Z,98056.44
2022-12-16T04:53:13.910Z,98049.59
2022-12-16T04:56:11.310Z,98043.41
2022-12-16T04:59:10.218Z,98037.63
2022-12-16T05:02:02.690Z,98037.63
2022-12-16T05:04:50.282Z,98051.22
2022-12-16T05:07:38.768Z,98054.81
2022-12-16T05:10:28.416Z,98065.09
2022-12-16T05:13:22.150Z,98050.53
2022-12-16T05:16:10.455Z,98056.44
2022-12-16T05:19:00.275Z,98067.72
2022-12-16T05:21:48.110Z,98073.38
2022-12-16T05:24:34.179Z,98080.28
2022-12-16T05:27:21.651Z,98072.22
2022-12-16T05:30:10.202Z,98088.13
2022-12-16T05:32:55.806Z,98097.63
2022-12-16T05:35:41.547Z,98113.22
2022-12-16T05:38:29.200Z,98129.22
2022-12-16T05:41:14.531Z,98135.13
2022-12-16T05:43:59.895Z,98135.56
2022-12-16T05:46:58.943Z,98124.53
2022-12-16T05:49:47.884Z,98129.78
2022-12-16T05:52:36.694Z,98143.03
2022-12-16T05:55:26.845Z,98152.78
2022-12-16T05:58:18.004Z,98167.53
2022-12-16T06:01:06.640Z,98164.59
2022-12-16T06:04:06.233Z,98157.50
2022-12-16T06:06:54.709Z,98160.66
2022-12-16T06:09:44.777Z,98157.84
2022-12-16T06:12:31.310Z,98158.44
2022-12-16T06:15:18.692Z,98164.78
2022-12-16T06:18:09.211Z,98169.63
2022-12-16T06:21:00.995Z,98170.66
2022-12-16T06:23:47.557Z,98187.78
2022-12-16T06:26:35.594Z,98178.69
2022-12-16T06:29:23.372Z,98203.06
2022-12-16T06:32:09.301Z,98215.88
2022-12-16T06:34:56.978Z,98214.91
2022-12-16T06:37:48.092Z,98214.25
2022-12-16T06:40:43.512Z,98224.66
2022-12-16T06:43:29.035Z,98212.88
2022-12-16T06:46:17.241Z,98218.00
2022-12-16T06:49:03.236Z,98226.09
2022-12-16T06:51:52.335Z,98240.34
2022-12-16T06:54:44.577Z,98241.00
2022-12-16T06:57:35.896Z,98239.13
2022-12-16T07:00:33.809Z,98241.94
2022-12-16T07:03:20.895Z,98253.00
2022-12-16T07:06:11.975Z,98267.41
2022-12-16T07:09:01.235Z,98269.94
2022-12-16T07:12:00.735Z,98282.22
2022-12-16T07:14:48.097Z,98294.41
2022-12-16T07:17:36.092Z,98295.75
2022-12-16T07:20:25.964Z,98306.09
2022-12-16T07:23:19.331Z,98307.09
2022-12-16T07:26:11.152Z,98308.00
2022-12-16T07:29:03.188Z,98316.84
2022-12-16T07:31:53.817Z,98305.84
2022-12-16T07:34:48.553Z,98312.09
2022-12-16T07:37:38.314Z,98312.03
2022-12-16T07:40:30.357Z,98325.69
2022-12-16T07:43:25.635Z,98333.47
2022-12-16T07:46:14.333Z,98339.53
2022-12-16T07:49:01.283Z,98337.75
2022-12-16T07:51:49.256Z,98355.56
2022-12-16T07:54:34.769Z,98352.56
2022-12-16T07:57:21.850Z,98357.84
2022-12-16T08:00:16.556Z,98367.75
2022-12-16T08:03:04.272Z,98378.88
2022-12-16T08:05:53.805Z,98372.41
2022-12-16T08:08:39.294Z,98360.66
2022-12-16T08:11:28.347Z,98356.97
2022-12-16T08:14:14.722Z,98374.84
2022-12-16T08:17:05.328Z,98376.22
2022-12-16T08:19:56.025Z,98383.72
2022-12-16T08:22:47.715Z,98368.00
2022-12-16T08:25:34.369Z,98371.56
2022-12-16T08:28:22.730Z,98389.50
2022-12-16T08:31:16.394Z,98408.22
2022-12-16T08:34:03.627Z,98416.63
2022-12-16T08:36:53.614Z,98407.13
2022-12-16T08:39:41.593Z,98422.56
2022-12-16T08:42:32.573Z,98424.41
2022-12-16T08:45:20.899Z,98427.75
2022-12-16T08:48:12.323Z,98435.16
2022-12-16T08:51:00.691Z,98448.09
2022-12-16T08:54:03.985Z,98451.91
2022-12-16T08:56:50.400Z,98458.63
2022-12-16T08:59:37.435Z,98477.53
2022-12-16T09:02:23.609Z,98471.78
2022-12-16T09:05:11.076Z,98479.56
2022-12-16T09:08:00.696Z,98479.31
2022-12-16T09:10:53.388Z,98482.06
2022-12-16T09:13:43.844Z,98483.84
2022-12-16T09:16:32.005Z,98495.25
2022-12-16T09:19:18.507Z,98498.34
2022-12-16T09:22:09.345Z,98515.56
2022-12-16T09:24:57.706Z,98524.28
2022-12-16T09:27:51.870Z,98520.47
2022-12-16T09:30:43.292Z,98515.19
2022-12-16T09:33:33.805Z,98535.41
2022-12-16T09:36:22.722Z,98528.25
2022-12-16T09:39:11.280Z,98521.91
2022-12-16T09:42:03.030Z,98521.50
2022-12-16T09:45:02.845Z,98508.69
2022-12-16T09:47:54.098Z,98499.25
2022-12-16T09:50:44.469Z,98511.63
2022-12-16T09:53:42.496Z,98515.19
2022-12-16T09:56:35.779Z,98509.13
2022-12-16T09:59:29.261Z,98504.19
2022-12-16T10:02:20.755Z,98501.91
2022-12-16T10:05:12.151Z,98515.09
2022-12-16T10:08:06.760Z,98519.06
2022-12-16T10:10:59.515Z,98509.34
2022-12-16T10:13:54.856Z,98502.66
2022-12-16T10:16:49.004Z,98515.72
2022-12-16T10:20:01.467Z,98524.66
2022-12-16T10:22:57.471Z,98517.28
2022-12-16T10:25:50.623Z,98531.38
2022-12-16T10:28:44.023Z,98519.66
2022-12-16T10:31:35.629Z,98502.78
2022-12-16T10:34:30.596Z,98491.66
2022-12-16T10:37:21.321Z,98496.19
2022-12-16T10:40:11.496Z,98495.97
2022-12-16T10:43:05.916Z,98512.72
2022-12-16T10:45:57.572Z,98528.03
2022-12-16T10:48:56.668Z,98540.00
2022-12-16T10:51:47.135Z,98538.78
2022-12-16T10:54:58.106Z,98551.72
2022-12-16T10:57:54.047Z,98559.16
2022-12-16T11:00:58.318Z,98563.72
2022-12-16T11:03:47.790Z,98558.56
2022-12-16T11:06:42.198Z,98555.78
2022-12-16T11:09:58.292Z,98548.88
2022-12-16T11:12:49.986Z,98547.03
2022-12-16T11:16:04.697Z,98560.81
2022-12-16T11:18:54.380Z,98546.09
2022-12-16T11:21:42.340Z,98546.69
2022-12-16T11:24:37.800Z,98543.31
2022-12-16T11:27:26.541Z,98541.66
2022-12-16T11:30:18.233Z,98557.72
2022-12-16T11:33:07.376Z,98566.94
2022-12-16T11:36:01.346Z,98561.88
2022-12-16T11:38:55.551Z,98557.94
2022-12-16T11:41:47.697Z,98552.94
2022-12-16T11:44:51.824Z,98565.63
2022-12-16T11:47:46.576Z,98584.41
2022-12-16T11:50:39.656Z,98577.69
2022-12-16T11:53:39.241Z,98591.72
2022-12-16T11:56:31.102Z,98594.34
2022-12-16T11:59:22.283Z,98604.31
2022-12-16T12:02:18.394Z,98589.34
2022-12-16T12:05:10.039Z,98591.72
2022-12-16T12:08:02.989Z,98611.84
2022-12-16T12:11:04.636Z,98619.16
2022-12-16T12:14:40.274Z,98601.78
2022-12-16T12:17:41.488Z,98604.19
2022-12-16T12:20:51.910Z,98618.78
2022-12-16T12:23:46.902Z,98597.00
2022-12-16T12:26:40.928Z,98602.25
2022-12-16T12:29:34.826Z,98608.00
2022-12-16T12:32:39.408Z,98601.56
2022-12-16T12:35:43.949Z,98600.22
2022-12-16T12:38:39.915Z,98608.59
2022-12-16T12:41:37.487Z,98613.78
2022-12-16T12:44:48.636Z,98623.56
2022-12-16T12:47:38.179Z,98612.44
2022-12-16T12:50:41.136Z,98615.66
2022-12-16T12:53:45.325Z,98627.28
2022-12-16T12:56:39.639Z,98625.53
2022-12-16T12:59:37.608Z,98639.28
2022-12-16T13:02:33.625Z,98639.63
2022-12-16T13:05:24.421Z,98639.41
2022-12-16T13:08:15.191Z,98639.38
2022-12-16T13:11:35.284Z,98656.53
2022-12-16T13:14:28.097Z,98664.94
2022-12-16T13:17:25.249Z,98680.41
2022-12-16T13:20:16.770Z,98691.88
2022-12-16T13:23:08.704Z,98706.63
2022-12-16T13:26:10.338Z,98697.63
2022-12-16T13:28:58.803Z,98696.41
2022-12-16T13:31:48.870Z,98679.88
2022-12-16T13:34:46.941Z,98680.75
2022-12-16T13:37:44.769Z,98686.97
2022-12-16T13:40:36.729Z,98684.69
2022-12-16T13:44:03.195Z,98692.34
2022-12-16T13:47:06.350Z,98726.97
2022-12-16T13:50:05.126Z,98745.41
2022-12-16T13:53:23.888Z,98735.56
2022-12-16T13:56:26.586Z,98746.03
2022-12-16T13:59:23.818Z,98741.34
2022-12-16T14:02:20.020Z,98732.47
2022-12-16T14:05:28.145Z,98743.38
2022-12-16T14:08:21.188Z,98749.97
2022-12-16T14:11:17.888Z,98756.19
2022-12-16T14:14:09.779Z,98762.69
2022-12-16T14:17:10.857Z,98754.56
2022-12-16T14:20:31.145Z,98770.69
2022-12-16T14:23:47.359Z,98763.97
2022-12-16T14:26:35.326Z,98774.75
2022-12-16T14:29:23.732Z,98758.31
2022-12-16T14:32:14.844Z,98765.97
2022-12-16T14:35:03.082Z,98781.31
2022-12-16T14:37:54.350Z,98787.81
2022-12-16T14:40:46.153Z,98785.72
2022-12-16T14:43:38.378Z,98791.22
2022-12-16T14:46:30.232Z,98796.16
2022-12-16T14:49:37.705Z,98807.38
2022-12-16T14:52:41.313Z,98800.81
2022-12-16T14:55:39.301Z,98804.91
2022-12-16T14:58:29.764Z,98803.22
2022-12-16T15:01:19.442Z,98810.84
2022-12-16T15:04:12.756Z,98821.56
2022-12-16T15:07:31.225Z,98830.75
2022-12-16T15:10:21.035Z,98824.19
2022-12-16T15:13:09.569Z,98832.38
2022-12-16T15:15:58.795Z,98845.44
2022-12-16T15:18:55.647Z,98855.09
2022-12-16T15:21:44.021Z,98865.00
2022-12-16T15:24:37.972Z,98865.66
2022-12-16T15:27:44.976Z,98875.31
2022-12-16T15:30:56.425Z,98864.72
2022-12-16T15:33:45.710Z,98870.22
2022-12-16T15:36:43.208Z,98889.53
2022-12-16T15:39:44.476Z,98880.97
2022-12-16T15:42:41.997Z,98882.00
2022-12-16T15:45:44.120Z,98886.03
2022-12-16T15:48:32.798Z,98885.81
2022-12-16T15:51:23.432Z,98905.09
2022-12-16T15:54:21.286Z,98918.41
2022-12-16T15:57:10.366Z,98922.44
2022-12-16T16:00:17.241Z,98912.81
2022-12-16T16:03:08.247Z,98914.34
2022-12-16T16:05:59.646Z,98928.47
2022-12-16T16:08:50.585Z,98922.31
2022-12-16T16:11:42.132Z,98922.22
2022-12-16T16:14:33.108Z,98946.47
2022-12-16T16:17:43.912Z,98946.25
2022-12-16T16:20:35.900Z,98943.31
2022-12-16T16:23:25.601Z,98931.47
2022-12-16T16:26:12.887Z,98946.03
2022-12-16T16:29:04.787Z,98942.44
2022-12-16T16:32:02.280Z,98952.25
2022-12-16T16:34:54.156Z,98950.66
2022-12-16T16:37:45.030Z,98951.41
2022-12-16T16:40:40.617Z,98951.53
2022-12-16T16:43:30.611Z,98960.72
2022-12-16T16:46:21.311Z,98965.84
2022-12-16T16:49:06.297Z,98965.09
2022-12-16T16:55:01.179Z,98972.50
2022-12-16T16:57:54.450Z,98972.28
2022-12-16T17:00:46.970Z,98971.66
2022-12-16T17:03:34.724Z,98988.50
2022-12-16T17:06:25.956Z,98992.19
2022-12-16T17:09:16.136Z,99002.72
2022-12-16T17:12:10.194Z,99003.13
2022-12-16T17:14:58.227Z,99004.28
2022-12-16T17:17:50.500Z,99011.34
2022-12-16T17:20:36.960Z,99006.69
2022-12-16T17:23:28.630Z,99020.94
2022-12-16T17:26:31.163Z,99021.75
2022-12-16T17:29:40.929Z,99022.19
2022-12-16T17:32:26.956Z,99018.72
2022-12-16T17:35:17.260Z,99020.69
2022-12-16T17:38:05.617Z,99018.41
2022-12-16T17:40:57.672Z,99018.69
2022-12-16T17:43:48.592Z,99028.25
2022-12-16T17:46:39.466Z,99047.69
2022-12-16T17:49:36.262Z,99052.50
2022-12-16T17:52:23.046Z,99049.25
2022-12-16T17:55:15.076Z,99041.53
2022-12-16T17:58:03.001Z,99044.47
2022-12-16T18:00:48.875Z,99052.09
2022-12-16T18:03:39.075Z,99053.56
2022-12-16T18:06:31.332Z,99046.94
2022-12-16T18:09:20.291Z,99064.69
2022-12-16T18:12:15.796Z,99059.44
2022-12-16T18:15:06.528Z,99067.00
2022-12-16T18:17:56.350Z,99075.59
2022-12-16T18:20:50.248Z,99080.75
2022-12-16T18:23:40.653Z,99082.03
2022-12-16T18:26:43.412Z,99079.75
2022-12-16T18:29:33.398Z,99076.34
2022-12-16T18:32:33.394Z,99083.56
2022-12-16T18:35:23.253Z,99091.81
2022-12-16T18:38:14.796Z,99090.06
2022-12-16T18:41:05.533Z,99105.09
2022-12-16T18:44:02.685Z,99108.38
2022-12-16T18:46:54.942Z,99092.94
2022-12-16T18:49:47.527Z,99091.91
2022-12-16T18:52:40.742Z,99103.06
2022-12-16T18:55:29.068Z,99091.22
2022-12-16T19:01:40.412Z,99112.19
2022-12-16T19:04:29.305Z,99103.97
2022-12-16T19:07:18.032Z,99111.53
2022-12-16T19:10:07.735Z,99127.31
2022-12-16T19:12:55.540Z,99126.22
2022-12-16T19:15:47.251Z,99134.00
2022-12-16T19:18:42.438Z,99140.13
2022-12-16T19:21:32.455Z,99161.63
2022-12-16T19:24:25.010Z,99152.22
2022-12-16T19:27:15.447Z,99146.31
2022-12-16T19:30:05.032Z,99164.34
2022-12-16T19:33:01.280Z,99161.19
2022-12-16T19:35:49.407Z,99155.22
2022-12-16T19:38:49.454Z,99164.53
2022-12-16T19:41:37.725Z,99164.13
2022-12-16T19:44:24.985Z,99159.88
2022-12-16T19:47:14.264Z,99160.13
2022-12-16T19:50:04.509Z,99172.16
2022-12-16T19:52:55.986Z,99175.03
2022-12-16T19:55:49.908Z,99169.25
2022-12-16T19:58:49.651Z,99172.91
2022-12-16T20:01:37.572Z,99188.56
2022-12-16T20:04:26.861Z,99179.84
2022-12-16T20:10:36.508Z,99189.41
2022-12-16T20:13:30.682Z,99187.53
2022-12-16T20:16:26.395Z,99194.19
2022-12-16T20:19:15.822Z,99203.59
2022-12-16T20:22:07.488Z,99213.25
2022-12-16T20:25:14.434Z,99220.84
2022-12-16T20:28:02.692Z,99212.22
2022-12-16T20:30:56.311Z,99218.88
2022-12-16T20:33:48.043Z,99212.50
2022-12-16T20:36:48.060Z,99238.97
2022-12-16T20:39:35.424Z,99243.00
2022-12-16T20:42:26.185Z,99238.13
2022-12-16T20:45:19.689Z,99238.50
2022-12-16T20:48:10.751Z,99246.75
2022-12-16T20:51:22.598Z,99250.88
2022-12-16T20:54:15.215Z,99251.25
2022-12-16T20:57:13.016Z,99248.34
2022-12-16T20:59:59.321Z,99252.31
2022-12-16T21:02:47.835Z,99260.47
2022-12-16T21:05:37.232Z,99257.84
2022-12-16T21:08:25.568Z,99274.41
2022-12-16T21:11:17.886Z,99258.97
2022-12-16T21:14:06.539Z,99263.47
2022-12-16T21:16:57.276Z,99269.75
2022-12-16T21:19:43.134Z,99280.53
2022-12-16T21:26:21.772Z,99282.06
2022-12-16T21:29:06.383Z,99285.78
2022-12-16T21:34:56.440Z,99278.81
2022-12-16T21:37:45.024Z,99298.16
2022-12-16T21:40:34.314Z,99299.34
2022-12-16T21:43:26.554Z,99286.06
2022-12-16T21:46:16.221Z,99291.81
2022-12-16T21:49:22.579Z,99297.06
2022-12-16T21:52:18.803Z,99297.88
2022-12-16T21:55:12.215Z,99301.00
2022-12-16T21:58:10.549Z,99300.78
2022-12-16T22:01:01.923Z,99313.09
2022-12-16T22:03:54.445Z,99311.78
2022-12-16T22:09:56.301Z,99326.72
2022-12-16T22:12:46.579Z,99323.97
2022-12-16T22:15:36.457Z,99323.69
2022-12-16T22:18:38.641Z,99331.25
2022-12-16T22:21:26.092Z,99321.63
2022-12-16T22:24:15.626Z,99342.38
2022-12-16T22:27:00.263Z,99334.66
2022-12-16T22:30:03.147Z,99340.63
2022-12-16T22:32:54.603Z,99323.97
2022-12-16T22:35:56.054Z,99329.75
2022-12-16T22:38:46.156Z,99354.81
2022-12-16T22:41:34.710Z,99335.47
2022-12-16T22:44:21.932Z,99342.25
2022-12-16T22:47:18.177Z,99344.09
2022-12-16T22:50:06.519Z,99341.72
2022-12-16T22:52:58.321Z,99369.19
2022-12-16T22:55:48.824Z,99359.88
2022-12-16T22:58:43.230Z,99350.59
2022-12-16T23:01:32.396Z,99361.47
2022-12-16T23:04:23.435Z,99353.88
2022-12-16T23:07:15.191Z,99359.56
2022-12-16T23:10:06.629Z,99360.13
2022-12-16T23:12:56.348Z,99362.94
2022-12-16T23:15:44.875Z,99363.38
2022-12-16T23:18:30.461Z,99368.63
2022-12-16T23:21:21.689Z,99357.34
2022-12-16T23:24:14.561Z,99362.56
2022-12-16T23:27:15.500Z,99355.69
2022-12-16T23:30:04.449Z,99363.72
2022-12-16T23:32:52.437Z,99368.81
2022-12-16T23:35:43.417Z,99377.19
2022-12-16T23:38:29.583Z,99372.97
2022-12-16T23:41:18.044Z,99390.81
2022-12-16T23:44:08.369Z,99385.81
2022-12-16T23:46:56.330Z,99385.72
2022-12-16T23:49:48.669Z,99382.91
2022-12-16T23:52:38.686Z,99395.47
2022-12-16T23:55:27.413Z,99373.22
2022-12-16T23:58:32.592Z,99393.69
